Malaysia Virtual Airlines Airport Information Service

Langkawi Intl

ICAO: WMKL Country: Malaysia
Latitude: 6.32972 Longitude: 99.7286
Latest Arrival : MH1432 (WMKK-WMKL) Latest Departure : MH1433 (WMKL-WMKK)


WX CaptureLIVE
Data provided by noaa.gov | Fetched at 08:10:49

METAR : WMKL 160700Z 00000KT 9999 FEW017CB 29/26 Q1010 RETSRA

TAF : WMKL 160500Z 1606/1706 26006KT 9999 FEW022 TEMPO 1606/1610 6000 -TSRA FEW010 FEW017CB BECMG 1610/1612 VRB03KT FEW026 TEMPO 1620/1700 5000 TSRA FEW010 FEW017CB


Runway Data for WMKL
Data provided by openaviationdata.com

Runway ID Mag Var Hdg Length Elevation Surface ILS Freq ILS Id ILS Slope
3 0 34° 12547 ft 29 ft Asphalt 110.7 ILK 3
21 0 214° 12547 ft 29 ft Asphalt -- -- --

Langkawi Intl, Malaysia
Use only for reference purposes



Not for navigational purposes.